Time;durP1;ratioP1;P1;durP2;ratioP2;P2;SDS_P1;SDS_P2;PMS_P1;PMS_P2;Temp;Humidity;BMP_temperature;BMP_pressure;BME280_temperature;BME280_humidity;BME280_pressure;Samples;Min_cycle;Max_cycle;Signal;HPM_P1;HPM_P2
2020/12/15 00:00:52;;;;;;;24.83;16.95;;;;;;;-144.15;0.00;65763.66;10238628;28;20049;-71
2020/12/15 00:05:52;;;;;;;24.33;16.83;;;;;;;-144.15;0.00;65763.66;10237194;28;20077;-72
2020/12/15 00:10:50;;;;;;;23.40;17.05;;;;;;;-144.15;0.00;65763.66;10237867;28;20045;-70
2020/12/15 00:15:48;;;;;;;23.40;16.80;;;;;;;-144.15;0.00;65763.66;10237911;28;20053;-70
2020/12/15 00:20:46;;;;;;;26.50;18.65;;;;;;;-144.15;0.00;65763.66;10237725;28;20038;-73
2020/12/15 00:25:44;;;;;;;44.08;30.35;;;;;;;-144.15;0.00;65763.66;10237398;28;20081;-70
2020/12/15 00:30:42;;;;;;;22.63;16.42;;;;;;;-144.15;0.00;65763.66;10236553;28;20073;-71
2020/12/15 00:35:39;;;;;;;24.75;15.82;;;;;;;-144.15;0.00;65763.66;10237007;28;20041;-71
2020/12/15 00:40:38;;;;;;;22.73;15.68;;;;;;;-144.15;0.00;65763.66;10237174;28;20088;-72
2020/12/15 00:45:36;;;;;;;22.35;15.65;;;;;;;-144.15;0.00;65763.66;10237200;28;20088;-71
2020/12/15 00:50:34;;;;;;;25.38;17.80;;;;;;;-144.15;0.00;65763.66;10237545;28;20080;-71
2020/12/15 00:55:31;;;;;;;21.17;16.52;;;;;;;-144.15;0.00;65763.66;10236194;28;20048;-72
2020/12/15 01:00:30;;;;;;;40.88;24.00;;;;;;;-144.15;0.00;65763.66;10237201;28;20037;-71
2020/12/15 01:05:28;;;;;;;22.73;17.00;;;;;;;-144.15;0.00;65763.66;10236113;28;20083;-71
2020/12/15 01:10:27;;;;;;;29.00;20.38;;;;;;;-144.15;0.00;65763.66;10234341;28;20057;-71
2020/12/15 01:15:25;;;;;;;46.22;29.95;;;;;;;-144.15;0.00;65763.66;10236148;28;20096;-71
2020/12/15 01:20:24;;;;;;;38.25;26.80;;;;;;;-144.15;0.00;65763.66;10233878;28;20049;-71
2020/12/15 01:25:23;;;;;;;42.60;30.50;;;;;;;-144.15;0.00;65763.66;10234368;28;20072;-71
2020/12/15 01:30:28;;;;;;;56.33;40.35;;;;;;;-144.15;0.00;65763.66;10234408;28;20060;-71
2020/12/15 01:35:46;;;;;;;42.67;30.23;;;;;;;-144.15;0.00;65763.66;10246536;28;20053;-71
2020/12/15 01:40:48;;;;;;;36.33;25.98;;;;;;;-144.15;0.00;65763.66;10233353;28;20656;-73
2020/12/15 01:45:46;;;;;;;35.55;24.83;;;;;;;-144.15;0.00;65763.66;10235562;28;20089;-71
2020/12/15 01:50:45;;;;;;;39.50;29.00;;;;;;;-144.15;0.00;65763.66;10233878;28;20541;-69
2020/12/15 01:55:45;;;;;;;39.35;26.23;;;;;;;-144.15;0.00;65763.66;10233428;28;20400;-70
2020/12/15 02:00:46;;;;;;;33.65;25.63;;;;;;;-144.15;0.00;65763.66;10233795;28;20049;-70
2020/12/15 02:05:48;;;;;;;38.63;27.85;;;;;;;-144.15;0.00;65763.66;10233657;28;20095;-70
2020/12/15 02:10:47;;;;;;;30.00;21.90;;;;;;;-144.15;0.00;65763.66;10233634;28;20042;-69
2020/12/15 02:15:50;;;;;;;29.30;21.52;;;;;;;-144.15;0.00;65763.66;10233511;28;20060;-70
2020/12/15 02:20:49;;;;;;;24.13;17.98;;;;;;;-144.15;0.00;65763.66;10233353;28;20573;-72
2020/12/15 02:26:02;;;;;;;24.05;17.58;;;;;;;-144.15;0.00;65763.66;10233162;28;20089;-71
2020/12/15 02:31:02;;;;;;;23.10;17.13;;;;;;;-144.15;0.00;65763.66;10232831;28;20058;-71
2020/12/15 02:36:11;;;;;;;23.23;16.02;;;;;;;-144.15;0.00;65763.66;10233066;28;20049;-71
2020/12/15 02:41:29;;;;;;;26.92;18.13;;;;;;;-144.15;0.00;65763.66;10232828;28;20069;-71
2020/12/15 02:46:30;;;;;;;31.55;18.38;;;;;;;-144.15;0.00;65763.66;10232506;28;20411;-71
2020/12/15 02:51:28;;;;;;;28.33;19.95;;;;;;;-144.15;0.00;65763.66;10235224;28;20530;-72
2020/12/15 02:56:42;;;;;;;34.75;23.98;;;;;;;-144.15;0.00;65763.66;10240484;28;20507;-72
2020/12/15 03:01:43;;;;;;;44.45;31.75;;;;;;;-144.15;0.00;65763.66;10240196;28;20426;-71
2020/12/15 03:06:43;;;;;;;62.25;44.97;;;;;;;-144.15;0.00;65763.66;10239814;28;20056;-72
2020/12/15 03:11:50;;;;;;;32.22;22.73;;;;;;;-144.15;0.00;65763.66;10239048;28;20054;-71
2020/12/15 03:16:57;;;;;;;24.23;18.38;;;;;;;-144.15;0.00;65763.66;10238933;28;20511;-72
2020/12/15 03:21:57;;;;;;;26.38;16.77;;;;;;;-144.15;0.00;65763.66;10239215;28;20053;-72
2020/12/15 03:26:57;;;;;;;27.02;18.45;;;;;;;-144.15;0.00;65763.66;10238930;28;20058;-72
2020/12/15 03:31:55;;;;;;;21.45;15.52;;;;;;;-144.15;0.00;65763.66;10240186;28;20068;-71
2020/12/15 03:37:00;;;;;;;23.90;15.98;;;;;;;-144.15;0.00;65763.66;10238585;28;20049;-70
2020/12/15 03:42:03;;;;;;;24.48;16.35;;;;;;;-144.15;0.00;65763.66;10238267;28;20057;-71
2020/12/15 03:47:02;;;;;;;23.38;16.52;;;;;;;-144.15;0.00;65763.66;10238118;28;20048;-71
2020/12/15 03:52:01;;;;;;;23.40;16.02;;;;;;;-144.15;0.00;65763.66;10238074;28;20046;-70
2020/12/15 03:56:59;;;;;;;24.85;17.40;;;;;;;-144.15;0.00;65763.66;10238947;28;20446;-70
2020/12/15 04:01:58;;;;;;;28.50;18.05;;;;;;;-144.15;0.00;65763.66;10238232;28;20052;-70
2020/12/15 04:06:56;;;;;;;33.88;20.27;;;;;;;-144.15;0.00;65763.66;10237396;28;20058;-71
2020/12/15 04:12:05;;;;;;;30.80;18.58;;;;;;;-144.15;0.00;65763.66;10236643;28;20072;-70
2020/12/15 04:17:04;;;;;;;36.25;20.80;;;;;;;-144.15;0.00;65763.66;10237281;28;20045;-70
2020/12/15 04:22:03;;;;;;;42.08;22.92;;;;;;;-144.15;0.00;65763.66;10237219;28;20049;-70
2020/12/15 04:27:11;;;;;;;35.83;20.20;;;;;;;-144.15;0.00;65763.66;10236631;28;20049;-73
2020/12/15 04:32:11;;;;;;;35.92;19.20;;;;;;;-144.15;0.00;65763.66;10235309;28;20406;-71
2020/12/15 04:37:35;;;;;;;40.83;20.63;;;;;;;-144.15;0.00;65763.66;10234861;28;20084;-70
2020/12/15 04:42:39;;;;;;;40.38;19.55;;;;;;;-144.15;0.00;65763.66;10235688;28;20080;-70
2020/12/15 04:47:45;;;;;;;47.95;22.13;;;;;;;-144.15;0.00;65763.66;10231401;28;20080;-71
2020/12/15 04:52:54;;;;;;;51.22;23.67;;;;;;;-144.15;0.00;65763.66;10230935;28;20088;-72
2020/12/15 04:58:19;;;;;;;48.30;21.77;;;;;;;-144.15;0.00;65763.66;10233712;28;20073;-70
2020/12/15 05:03:22;;;;;;;158.07;97.15;;;;;;;-144.15;0.00;65763.66;10235050;28;20060;-72
2020/12/15 05:08:21;;;;;;;139.43;88.68;;;;;;;-144.15;0.00;65763.66;10234895;28;20396;-71
2020/12/15 05:13:24;;;;;;;140.70;78.35;;;;;;;-144.15;0.00;65763.66;10234233;28;20127;-70
2020/12/15 05:18:23;;;;;;;74.78;41.75;;;;;;;-144.15;0.00;65763.66;10234740;28;20069;-70
2020/12/15 05:23:24;;;;;;;64.75;39.17;;;;;;;-144.15;0.00;65763.66;10234459;28;20045;-70
2020/12/15 05:28:28;;;;;;;52.70;31.50;;;;;;;-144.15;0.00;65763.66;10234717;28;20050;-70
2020/12/15 05:33:27;;;;;;;42.72;29.85;;;;;;;-144.15;0.00;65763.66;10233891;28;20041;-70
2020/12/15 05:38:45;;;;;;;59.10;39.65;;;;;;;-144.15;0.00;65763.66;10223872;28;20073;-70
2020/12/15 05:43:51;;;;;;;;;;;;;;;-144.15;0.00;65763.66;10234187;28;20093;-71
2020/12/15 05:48:52;;;;;;;36.67;21.17;;;;;;;-144.15;0.00;65763.66;10235625;28;19921;-70
2020/12/15 05:53:49;;;;;;;35.20;20.95;;;;;;;-144.15;0.00;65763.66;10235459;28;20042;-72
2020/12/15 05:58:53;;;;;;;38.47;21.23;;;;;;;-144.15;0.00;65763.66;10235397;28;20049;-71
2020/12/15 06:03:57;;;;;;;39.17;21.85;;;;;;;-144.15;0.00;65763.66;10235563;28;20137;-70
2020/12/15 06:08:57;;;;;;;50.72;29.05;;;;;;;-144.15;0.00;65763.66;10235430;28;20057;-71
2020/12/15 06:13:55;;;;;;;57.53;26.60;;;;;;;-144.15;0.00;65763.66;10235482;28;20098;-70
2020/12/15 06:18:53;;;;;;;64.50;34.60;;;;;;;-144.15;0.00;65763.66;10234964;28;20056;-69
2020/12/15 06:23:59;;;;;;;55.45;30.55;;;;;;;-144.15;0.00;65763.66;10233311;28;20089;-70
2020/12/15 06:29:01;;;;;;;50.25;25.17;;;;;;;-144.15;0.00;65763.66;10241357;28;20046;-70
2020/12/15 06:34:01;;;;;;;49.92;30.50;;;;;;;-144.15;0.00;65763.66;10241852;28;20053;-70
2020/12/15 06:39:12;;;;;;;34.92;21.55;;;;;;;-144.15;0.00;65763.66;10242226;28;20052;-71
2020/12/15 06:44:10;;;;;;;42.45;24.73;;;;;;;-144.15;0.00;65763.66;10241709;28;20081;-71
2020/12/15 06:49:10;;;;;;;37.92;23.20;;;;;;;-144.15;0.00;65763.66;10241080;28;20089;-70
2020/12/15 06:54:09;;;;;;;31.35;21.52;;;;;;;-144.15;0.00;65763.66;10241933;28;20046;-70
2020/12/15 06:59:07;;;;;;;30.83;22.05;;;;;;;-144.15;0.00;65763.66;10241461;28;20076;-70
2020/12/15 07:04:05;;;;;;;32.15;20.83;;;;;;;-144.15;0.00;65763.66;10240332;28;20088;-70
2020/12/15 07:09:09;;;;;;;25.55;18.40;;;;;;;-144.15;0.00;65763.66;10241439;28;20046;-70
2020/12/15 07:14:07;;;;;;;28.17;17.45;;;;;;;-144.15;0.00;65763.66;10240419;28;20081;-70
2020/12/15 07:19:05;;;;;;;28.00;21.00;;;;;;;-144.15;0.00;65763.66;10239990;28;20045;-70
2020/12/15 07:24:03;;;;;;;28.02;18.67;;;;;;;-144.15;0.00;65763.66;10240832;28;20081;-71
2020/12/15 07:29:01;;;;;;;57.85;37.13;;;;;;;-144.15;0.00;65763.66;10241617;28;20340;-71
2020/12/15 07:34:11;;;;;;;41.85;25.58;;;;;;;-144.15;0.00;65763.66;10240172;28;20100;-70
2020/12/15 07:39:10;;;;;;;32.75;22.13;;;;;;;-144.15;0.00;65763.66;10238394;28;20089;-70
2020/12/15 07:44:09;;;;;;;43.60;31.98;;;;;;;-144.15;0.00;65763.66;10239973;28;20526;-70
2020/12/15 07:49:07;;;;;;;36.28;23.83;;;;;;;-144.15;0.00;65763.66;10239966;28;20077;-70
2020/12/15 07:54:05;;;;;;;35.55;26.52;;;;;;;-144.15;0.00;65763.66;10238650;28;20178;-70
2020/12/15 07:59:05;;;;;;;41.72;27.65;;;;;;;-144.15;0.00;65763.66;10239751;28;20046;-69
2020/12/15 08:04:04;;;;;;;37.00;22.38;;;;;;;-144.15;0.00;65763.66;10239057;28;20448;-69
2020/12/15 08:09:03;;;;;;;33.97;22.35;;;;;;;-144.15;0.00;65763.66;10237898;28;20077;-71
2020/12/15 08:14:03;;;;;;;45.13;33.70;;;;;;;-144.15;0.00;65763.66;10238191;28;20470;-69
2020/12/15 08:19:03;;;;;;;41.63;31.85;;;;;;;-144.15;0.00;65763.66;10238381;28;20080;-70
2020/12/15 08:24:05;;;;;;;38.42;26.60;;;;;;;-144.15;0.00;65763.66;10237398;28;20085;-70
2020/12/15 08:29:07;;;;;;;44.75;29.20;;;;;;;-144.15;0.00;65763.66;10238008;28;20529;-70
2020/12/15 08:34:14;;;;;;;45.58;36.65;;;;;;;-144.15;0.00;65763.66;10238004;28;20064;-71
2020/12/15 08:39:13;;;;;;;35.20;20.10;;;;;;;-144.15;0.00;65763.66;10237617;28;20049;-70
2020/12/15 08:44:13;;;;;;;57.10;38.33;;;;;;;-144.15;0.00;65763.66;10236635;28;20093;-71
2020/12/15 08:49:13;;;;;;;49.95;30.85;;;;;;;-144.15;0.00;65763.66;10236911;28;20076;-71
2020/12/15 08:54:11;;;;;;;48.08;27.88;;;;;;;-144.15;0.00;65763.66;10237370;28;20533;-70
2020/12/15 08:59:11;;;;;;;40.15;27.15;;;;;;;-144.15;0.00;65763.66;10236287;28;20077;-70
2020/12/15 09:04:12;;;;;;;42.67;26.08;;;;;;;-144.15;0.00;65763.66;10236520;28;20084;-69
2020/12/15 09:09:10;;;;;;;52.30;29.50;;;;;;;-144.15;0.00;65763.66;10236507;28;20052;-69
2020/12/15 09:14:08;;;;;;;51.75;32.30;;;;;;;-144.15;0.00;65763.66;10235678;28;20058;-69
2020/12/15 09:19:15;;;;;;;53.58;34.72;;;;;;;-144.15;0.00;65763.66;10236065;28;20075;-69
2020/12/15 09:24:12;;;;;;;47.00;28.05;;;;;;;-144.15;0.00;65763.66;10236014;28;20096;-70
2020/12/15 09:29:11;;;;;;;60.05;35.53;;;;;;;-144.15;0.00;65763.66;10234377;28;20048;-71
2020/12/15 09:34:10;;;;;;;55.75;30.10;;;;;;;-144.15;0.00;65763.66;10233496;28;20082;-71
2020/12/15 09:39:08;;;;;;;59.65;33.90;;;;;;;-144.15;0.00;65763.66;10235564;28;20041;-70
2020/12/15 09:44:06;;;;;;;53.15;30.17;;;;;;;-144.15;0.00;65763.66;10235005;28;20063;-70
2020/12/15 09:49:05;;;;;;;54.95;32.25;;;;;;;-144.15;0.00;65763.66;10232258;28;20084;-69
2020/12/15 09:54:05;;;;;;;56.95;30.92;;;;;;;-144.15;0.00;65763.66;10235517;28;20539;-71
2020/12/15 09:59:04;;;;;;;58.33;33.20;;;;;;;-144.15;0.00;65763.66;10235612;28;20042;-71
2020/12/15 10:04:04;;;;;;;65.10;35.42;;;;;;;-144.15;0.00;65763.66;10242257;28;20100;-71
2020/12/15 10:09:02;;;;;;;79.97;41.83;;;;;;;-144.15;0.00;65763.66;10243426;28;20045;-71
2020/12/15 10:14:02;;;;;;;60.47;35.17;;;;;;;-144.15;0.00;65763.66;10242947;28;20080;-71
2020/12/15 10:19:02;;;;;;;55.78;34.92;;;;;;;-144.15;0.00;65763.66;10243283;28;20052;-72
2020/12/15 10:24:00;;;;;;;67.95;42.30;;;;;;;-144.15;0.00;65763.66;10242579;28;20077;-71
2020/12/15 10:28:58;;;;;;;65.90;48.50;;;;;;;-144.15;0.00;65763.66;10242861;28;20064;-70
2020/12/15 10:33:56;;;;;;;57.92;38.22;;;;;;;-144.15;0.00;65763.66;10242557;28;20052;-71
2020/12/15 10:38:56;;;;;;;53.03;32.15;;;;;;;-144.15;0.00;65763.66;10242110;28;20069;-71
2020/12/15 10:43:54;;;;;;;52.78;32.00;;;;;;;-144.15;0.00;65763.66;10242066;28;20084;-72
2020/12/15 10:48:53;;;;;;;45.97;28.35;;;;;;;-144.15;0.00;65763.66;10241949;28;20052;-71
2020/12/15 10:53:51;;;;;;;45.97;28.73;;;;;;;-144.15;0.00;65763.66;10241697;28;20044;-71
2020/12/15 10:58:52;;;;;;;145.38;104.55;;;;;;;-144.15;0.00;65763.66;10241742;28;20085;-70
2020/12/15 11:03:49;;;;;;;77.78;52.20;;;;;;;-144.15;0.00;65763.66;10241172;28;20044;-70
2020/12/15 11:08:47;;;;;;;135.55;100.32;;;;;;;-144.15;0.00;65763.66;10241189;28;20353;-71
2020/12/15 11:13:46;;;;;;;102.63;81.88;;;;;;;-144.15;0.00;65763.66;10240048;28;20080;-71
2020/12/15 11:18:44;;;;;;;125.38;68.13;;;;;;;-144.15;0.00;65763.66;10240326;28;20034;-70
2020/12/15 11:23:42;;;;;;;80.65;47.60;;;;;;;-144.15;0.00;65763.66;10240082;28;20049;-70
2020/12/15 11:28:43;;;;;;;67.93;41.67;;;;;;;-144.15;0.00;65763.66;10240419;28;20053;-71
2020/12/15 11:33:42;;;;;;;42.47;28.23;;;;;;;-144.15;0.00;65763.66;10239577;28;20478;-67
2020/12/15 11:38:43;;;;;;;57.60;39.53;;;;;;;-144.15;0.00;65763.66;10239981;28;20045;-66
2020/12/15 11:43:41;;;;;;;61.60;35.35;;;;;;;-144.15;0.00;65763.66;10239787;28;20067;-66
2020/12/15 11:48:40;;;;;;;40.53;30.15;;;;;;;-144.15;0.00;65763.66;10239651;28;20080;-65
2020/12/15 11:53:38;;;;;;;46.10;30.08;;;;;;;-144.15;0.00;65763.66;10239292;28;20385;-65
2020/12/15 11:58:37;;;;;;;51.30;36.20;;;;;;;-144.15;0.00;65763.66;10239291;28;20069;-66
2020/12/15 12:03:34;;;;;;;72.15;42.78;;;;;;;-144.15;0.00;65763.66;10239076;28;20041;-65
2020/12/15 12:08:32;;;;;;;45.10;29.23;;;;;;;-144.15;0.00;65763.66;10238661;28;20076;-66
2020/12/15 12:13:31;;;;;;;42.33;26.30;;;;;;;-144.15;0.00;65763.66;10237999;28;20061;-66
2020/12/15 12:18:29;;;;;;;77.85;51.10;;;;;;;-144.15;0.00;65763.66;10236111;28;20499;-65
2020/12/15 12:23:28;;;;;;;69.45;45.38;;;;;;;-144.15;0.00;65763.66;10237903;28;20077;-66
2020/12/15 12:28:26;;;;;;;99.70;59.47;;;;;;;-144.15;0.00;65763.66;10238489;28;20522;-65
2020/12/15 12:33:24;;;;;;;118.85;80.05;;;;;;;-144.15;0.00;65763.66;10237813;28;20056;-66
2020/12/15 12:38:23;;;;;;;69.13;44.63;;;;;;;-144.15;0.00;65763.66;10237567;28;20042;-67
2020/12/15 12:43:20;;;;;;;47.17;29.20;;;;;;;-144.15;0.00;65763.66;10237411;28;20072;-67
2020/12/15 12:48:19;;;;;;;172.90;87.28;;;;;;;-144.15;0.00;65763.66;10237136;28;20073;-67
2020/12/15 12:53:17;;;;;;;82.07;44.78;;;;;;;-144.15;0.00;65763.66;10237403;28;20208;-66
2020/12/15 12:58:16;;;;;;;69.32;40.80;;;;;;;-144.15;0.00;65763.66;10237027;28;20069;-66
2020/12/15 13:03:14;;;;;;;280.30;117.60;;;;;;;-144.15;0.00;65763.66;10234992;28;20054;-65
2020/12/15 13:08:12;;;;;;;354.63;155.55;;;;;;;-144.15;0.00;65763.66;10236328;28;20103;-66
2020/12/15 13:13:09;;;;;;;82.80;45.25;;;;;;;-144.15;0.00;65763.66;10236029;28;20057;-66
2020/12/15 13:18:08;;;;;;;52.85;31.98;;;;;;;-144.15;0.00;65763.66;10235497;28;20068;-67
2020/12/15 13:23:08;;;;;;;73.82;45.92;;;;;;;-144.15;0.00;65763.66;10236614;28;20053;-66
2020/12/15 13:28:05;;;;;;;348.00;132.02;;;;;;;-144.15;0.00;65763.66;10236359;28;20526;-66
2020/12/15 13:33:03;;;;;;;53.40;36.33;;;;;;;-144.15;0.00;65763.66;10236106;28;20048;-66
2020/12/15 13:38:02;;;;;;;68.55;39.50;;;;;;;-144.15;0.00;65763.66;10235878;28;20463;-66
2020/12/15 13:43:00;;;;;;;42.00;28.40;;;;;;;-144.15;0.00;65763.66;10235500;28;20447;-66
2020/12/15 13:47:59;;;;;;;69.20;37.20;;;;;;;-144.15;0.00;65763.66;10235270;28;20086;-66
2020/12/15 13:52:57;;;;;;;75.40;43.83;;;;;;;-144.15;0.00;65763.66;10235580;28;20072;-66
2020/12/15 13:57:55;;;;;;;40.55;27.50;;;;;;;-144.15;0.00;65763.66;10235301;28;20044;-67
2020/12/15 14:02:53;;;;;;;45.58;30.92;;;;;;;-144.15;0.00;65763.66;10235301;28;20046;-64
2020/12/15 14:07:51;;;;;;;71.05;39.22;;;;;;;-144.15;0.00;65763.66;10234312;28;20077;-65
2020/12/15 14:12:49;;;;;;;51.35;33.83;;;;;;;-144.15;0.00;65763.66;10234523;28;20103;-65
2020/12/15 14:17:47;;;;;;;42.55;28.40;;;;;;;-144.15;0.00;65763.66;10234950;28;20069;-65
2020/12/15 14:22:45;;;;;;;213.88;109.40;;;;;;;-144.15;0.00;65763.66;10234902;28;20076;-66
2020/12/15 14:27:43;;;;;;;48.08;28.17;;;;;;;-144.15;0.00;65763.66;10234762;28;20077;-66
2020/12/15 14:32:41;;;;;;;74.65;48.55;;;;;;;-144.15;0.00;65763.66;10234735;28;20080;-65
2020/12/15 14:37:40;;;;;;;43.85;29.13;;;;;;;-144.15;0.00;65763.66;10234915;28;20100;-65
2020/12/15 14:42:38;;;;;;;79.57;48.22;;;;;;;-144.15;0.00;65763.66;10234075;28;20046;-67
2020/12/15 14:47:35;;;;;;;64.80;45.38;;;;;;;-144.15;0.00;65763.66;10237207;28;20080;-67
2020/12/15 14:52:37;;;;;;;81.90;57.72;;;;;;;-144.15;0.00;65763.66;10241577;28;20080;-66
2020/12/15 14:57:35;;;;;;;65.93;45.40;;;;;;;-144.15;0.00;65763.66;10241245;28;20088;-66
2020/12/15 15:02:33;;;;;;;56.90;41.58;;;;;;;-144.15;0.00;65763.66;10235169;28;20076;-65
2020/12/15 15:07:31;;;;;;;65.13;46.60;;;;;;;-144.15;0.00;65763.66;10240243;28;20080;-66
2020/12/15 15:12:41;;;;;;;75.82;54.63;;;;;;;-144.15;0.00;65763.66;10239337;28;20087;-67
2020/12/15 15:17:41;;;;;;;113.22;73.97;;;;;;;-144.15;0.00;65763.66;10238786;28;20410;-67
2020/12/15 15:22:39;;;;;;;91.10;64.90;;;;;;;-144.15;0.00;65763.66;10236170;28;20085;-68
2020/12/15 15:27:37;;;;;;;75.55;48.67;;;;;;;-144.15;0.00;65763.66;10236076;28;20073;-66
2020/12/15 15:32:35;;;;;;;86.38;54.58;;;;;;;-144.15;0.00;65763.66;10236184;28;20080;-65
2020/12/15 15:37:33;;;;;;;112.45;68.78;;;;;;;-144.15;0.00;65763.66;10239820;28;20407;-66
2020/12/15 15:42:31;;;;;;;81.93;52.72;;;;;;;-144.15;0.00;65763.66;10239729;28;20092;-65
2020/12/15 15:47:29;;;;;;;77.45;51.42;;;;;;;-144.15;0.00;65763.66;10237496;28;20095;-65
2020/12/15 15:52:28;;;;;;;69.70;49.17;;;;;;;-144.15;0.00;65763.66;10239088;28;20065;-66
2020/12/15 15:57:26;;;;;;;93.18;68.97;;;;;;;-144.15;0.00;65763.66;10237214;28;20462;-67
2020/12/15 16:02:24;;;;;;;70.45;50.55;;;;;;;-144.15;0.00;65763.66;10237604;28;20045;-65
2020/12/15 16:07:22;;;;;;;75.80;55.50;;;;;;;-144.15;0.00;65763.66;10238106;28;20084;-66
2020/12/15 16:12:20;;;;;;;49.20;35.13;;;;;;;-144.15;0.00;65763.66;10237162;28;20534;-66
2020/12/15 16:17:18;;;;;;;56.35;40.17;;;;;;;-144.15;0.00;65763.66;10237816;28;20049;-66
2020/12/15 16:22:19;;;;;;;56.97;41.75;;;;;;;-144.15;0.00;65763.66;10237970;28;20072;-67
2020/12/15 16:27:17;;;;;;;59.33;44.45;;;;;;;-144.15;0.00;65763.66;10238031;28;20081;-66
2020/12/15 16:32:17;;;;;;;62.03;44.22;;;;;;;-144.15;0.00;65763.66;10237724;28;20081;-67
2020/12/15 16:37:15;;;;;;;49.35;35.17;;;;;;;-144.15;0.00;65763.66;10236493;28;20061;-66
2020/12/15 16:42:13;;;;;;;76.40;48.00;;;;;;;-144.15;0.00;65763.66;10233299;28;20075;-66
2020/12/15 16:47:11;;;;;;;94.50;52.67;;;;;;;-144.15;0.00;65763.66;10231304;28;20084;-68
2020/12/15 16:52:09;;;;;;;98.55;67.80;;;;;;;-144.15;0.00;65763.66;10232192;28;20072;-66
2020/12/15 16:57:07;;;;;;;70.78;46.35;;;;;;;-144.15;0.00;65763.66;10234322;28;20069;-65
2020/12/15 17:02:08;;;;;;;46.63;34.10;;;;;;;-144.15;0.00;65763.66;10237003;28;20045;-67
2020/12/15 17:07:06;;;;;;;73.20;53.20;;;;;;;-144.15;0.00;65763.66;10235049;28;20076;-66
2020/12/15 17:12:05;;;;;;;41.65;29.90;;;;;;;-144.15;0.00;65763.66;10234217;28;20539;-67
2020/12/15 17:17:04;;;;;;;65.82;45.95;;;;;;;-144.15;0.00;65763.66;10233768;28;20084;-66
2020/12/15 17:22:05;;;;;;;138.57;80.82;;;;;;;-144.15;0.00;65763.66;10233930;28;20476;-66
2020/12/15 17:27:02;;;;;;;139.13;65.93;;;;;;;-144.15;0.00;65763.66;10234594;28;20085;-66
2020/12/15 17:32:01;;;;;;;68.57;44.58;;;;;;;-144.15;0.00;65763.66;10232456;28;20521;-66
2020/12/15 17:37:00;;;;;;;84.78;47.75;;;;;;;-144.15;0.00;65763.66;10231074;28;20072;-65
2020/12/15 17:41:58;;;;;;;47.97;32.65;;;;;;;-144.15;0.00;65763.66;10234003;28;20069;-66
2020/12/15 17:46:56;;;;;;;45.85;32.03;;;;;;;-144.15;0.00;65763.66;10231307;28;20083;-67
2020/12/15 17:51:54;;;;;;;119.78;65.32;;;;;;;-144.15;0.00;65763.66;10233630;28;20045;-66
2020/12/15 17:56:52;;;;;;;98.65;54.38;;;;;;;-144.15;0.00;65763.66;10234874;28;20080;-65
2020/12/15 18:01:50;;;;;;;52.55;34.33;;;;;;;-144.15;0.00;65763.66;10234820;28;20069;-67
2020/12/15 18:06:49;;;;;;;83.57;57.47;;;;;;;-144.15;0.00;65763.66;10234710;28;20081;-64
2020/12/15 18:11:51;;;;;;;78.30;50.55;;;;;;;-144.15;0.00;65763.66;10231374;28;20077;-66
2020/12/15 18:16:54;;;;;;;91.13;65.05;;;;;;;-144.15;0.00;65763.66;10233036;28;20088;-65
2020/12/15 18:21:58;;;;;;;70.43;49.63;;;;;;;-144.15;0.00;65763.66;10204609;28;20072;-66
2020/12/15 18:27:01;;;;;;;48.80;31.02;;;;;;;-144.15;0.00;65763.66;10240871;28;20064;-66
2020/12/15 18:32:04;;;;;;;82.88;53.85;;;;;;;-144.15;0.00;65763.66;10240619;28;20066;-65
2020/12/15 18:37:09;;;;;;;60.70;39.00;;;;;;;-144.15;0.00;65763.66;10244836;28;20096;-65
2020/12/15 18:42:12;;;;;;;81.27;54.03;;;;;;;-144.15;0.00;65763.66;10242403;28;20049;-65
2020/12/15 18:47:15;;;;;;;64.07;45.58;;;;;;;-144.15;0.00;65763.66;10241815;28;20540;-66
2020/12/15 18:52:18;;;;;;;60.28;40.03;;;;;;;-144.15;0.00;65763.66;10241210;28;20046;-66
2020/12/15 18:57:21;;;;;;;63.47;44.88;;;;;;;-144.15;0.00;65763.66;10240024;28;20069;-65
2020/12/15 19:02:24;;;;;;;53.17;36.70;;;;;;;-144.15;0.00;65763.66;10237319;28;20121;-67
2020/12/15 19:07:26;;;;;;;85.72;58.85;;;;;;;-144.15;0.00;65763.66;10240413;28;20078;-66
2020/12/15 19:12:30;;;;;;;64.60;45.05;;;;;;;-144.15;0.00;65763.66;10239069;28;20091;-66
2020/12/15 19:17:33;;;;;;;87.53;55.38;;;;;;;-144.15;0.00;65763.66;10233073;28;20533;-65
2020/12/15 19:22:35;;;;;;;78.28;49.67;;;;;;;-144.15;0.00;65763.66;10240437;28;20446;-66
2020/12/15 19:27:39;;;;;;;100.72;55.78;;;;;;;-144.15;0.00;65763.66;10240333;28;20493;-66
2020/12/15 19:32:42;;;;;;;92.47;55.58;;;;;;;-144.15;0.00;65763.66;10239821;28;20042;-66
2020/12/15 19:37:44;;;;;;;99.05;58.35;;;;;;;-144.15;0.00;65763.66;10239862;28;20057;-66
2020/12/15 19:42:48;;;;;;;75.68;46.83;;;;;;;-144.15;0.00;65763.66;10239857;28;20068;-65
2020/12/15 19:47:51;;;;;;;64.88;44.50;;;;;;;-144.15;0.00;65763.66;10238596;28;20064;-64
2020/12/15 19:52:54;;;;;;;64.45;37.95;;;;;;;-144.15;0.00;65763.66;10238767;28;20072;-65
2020/12/15 19:57:57;;;;;;;127.22;60.22;;;;;;;-144.15;0.00;65763.66;10238663;28;20075;-65
2020/12/15 20:03:00;;;;;;;71.45;44.15;;;;;;;-144.15;0.00;65763.66;10236754;28;20056;-66
2020/12/15 20:08:03;;;;;;;64.88;38.53;;;;;;;-144.15;0.00;65763.66;10238183;28;20084;-65
2020/12/15 20:13:06;;;;;;;85.50;52.10;;;;;;;-144.15;0.00;65763.66;10238520;28;20180;-66
2020/12/15 20:18:09;;;;;;;80.20;45.47;;;;;;;-144.15;0.00;65763.66;10238487;28;20076;-66
2020/12/15 20:23:12;;;;;;;69.88;41.67;;;;;;;-144.15;0.00;65763.66;10236371;28;20072;-65
2020/12/15 20:28:15;;;;;;;49.55;34.70;;;;;;;-144.15;0.00;65763.66;10236179;28;20096;-66
2020/12/15 20:33:18;;;;;;;58.10;37.53;;;;;;;-144.15;0.00;65763.66;10236756;28;20415;-67
2020/12/15 20:38:20;;;;;;;72.95;49.05;;;;;;;-144.15;0.00;65763.66;10235353;28;20081;-63
2020/12/15 20:43:24;;;;;;;64.68;41.35;;;;;;;-144.15;0.00;65763.66;10233454;28;20423;-64
2020/12/15 20:48:29;;;;;;;50.60;33.53;;;;;;;-144.15;0.00;65763.66;10232102;28;20479;-65
2020/12/15 20:53:32;;;;;;;46.60;30.92;;;;;;;-144.15;0.00;65763.66;10232588;28;20077;-66
2020/12/15 20:58:36;;;;;;;55.05;37.30;;;;;;;-144.15;0.00;65763.66;10230469;28;20498;-66
2020/12/15 21:03:38;;;;;;;41.20;28.13;;;;;;;-144.15;0.00;65763.66;10233184;28;20072;-66
2020/12/15 21:08:42;;;;;;;43.40;28.10;;;;;;;-144.15;0.00;65763.66;10231431;28;20111;-66
2020/12/15 21:13:45;;;;;;;61.58;36.30;;;;;;;-144.15;0.00;65763.66;10231447;28;20081;-66
2020/12/15 21:18:48;;;;;;;45.05;27.98;;;;;;;-144.15;0.00;65763.66;10230591;28;20137;-64
2020/12/15 21:23:46;;;;;;;40.95;26.67;;;;;;;-144.15;0.00;65763.66;10233349;28;20470;-66
2020/12/15 21:28:49;;;;;;;56.50;34.38;;;;;;;-144.15;0.00;65763.66;10234535;28;20123;-66
2020/12/15 21:33:47;;;;;;;49.22;30.27;;;;;;;-144.15;0.00;65763.66;10233410;28;20524;-64
2020/12/15 21:38:45;;;;;;;41.17;27.67;;;;;;;-144.15;0.00;65763.66;10232470;28;20073;-66
2020/12/15 21:43:45;;;;;;;43.40;29.85;;;;;;;-144.15;0.00;65763.66;10227315;28;20428;-64
2020/12/15 21:48:43;;;;;;;48.03;33.63;;;;;;;-144.15;0.00;65763.66;10232593;28;20511;-64
2020/12/15 21:53:41;;;;;;;47.47;33.65;;;;;;;-144.15;0.00;65763.66;10233285;28;20499;-66
2020/12/15 21:58:39;;;;;;;43.25;28.67;;;;;;;-144.15;0.00;65763.66;10238907;28;20076;-66
2020/12/15 22:03:37;;;;;;;59.70;35.67;;;;;;;-144.15;0.00;65763.66;10238379;28;20081;-65
2020/12/15 22:08:35;;;;;;;58.22;41.03;;;;;;;-144.15;0.00;65763.66;10240495;28;20073;-66
2020/12/15 22:13:33;;;;;;;57.72;35.38;;;;;;;-144.15;0.00;65763.66;10238025;28;20080;-64
2020/12/15 22:18:31;;;;;;;47.83;32.03;;;;;;;-144.15;0.00;65763.66;10240314;28;20073;-66
2020/12/15 22:23:32;;;;;;;36.83;24.63;;;;;;;-144.15;0.00;65763.66;10236395;28;20495;-64
2020/12/15 22:28:31;;;;;;;36.40;25.48;;;;;;;-144.15;0.00;65763.66;10240044;28;20073;-65